Weather at Avey Field State/Laurier Airport

Public forecast

Using degrees Fahrenheit for public forecast. Weather courtesy of forecast.io.

Closest aviation weather report (METAR) to Avey Field State/Laurier Airport

Report is more than 2 hours old.

Closest report is Castlegar/West Kootenay Regional Airport, 29.3 nm (54.3 km) NE.

2023/02/04 01:00 (retrieved 5 hours ago)

CYCG 040100Z 00000KT 15SM OVC087 01/M01 A2996 RMK AC8 LAST STFD OBS/NXT 041400Z SLP168

Closest aviation forecast (TAF) to Avey Field State/Laurier Airport

Forecast is more than 6 hours old.

Closest forecast is Castlegar/West Kootenay Regional Airport, 29.3 nm (54.3 km) NE.

2023/02/03 19:00 (retrieved 11 hours ago)

TAF CYCG 031840Z 0319/0401 VRB03KT P6SM FEW120 SCT200 FM032200 18006KT P6SM BKN120 OVC200 RMK NXT FCST BY 041600Z